Time;durP1;ratioP1;P1;durP2;ratioP2;P2;SDS_P1;SDS_P2;PMS_P1;PMS_P2;Temp;Humidity;BMP_temperature;BMP_pressure;BME280_temperature;BME280_humidity;BME280_pressure;Samples;Min_cycle;Max_cycle;Signal;HPM_P1;HPM_P2
2021/04/19 00:00:42;;;;;;;17.75;6.22;;;4.10;99.90;;;;;;5050604;28;20021;-58
2021/04/19 00:03:08;;;;;;;14.23;5.85;;;4.10;99.90;;;;;;5049619;28;20025;-59
2021/04/19 00:05:33;;;;;;;17.70;6.13;;;4.10;99.90;;;;;;5050209;28;20024;-55
2021/04/19 00:08:00;;;;;;;12.35;5.20;;;4.10;99.90;;;;;;5050370;28;20090;-58
2021/04/19 00:10:26;;;;;;;15.68;6.00;;;4.10;99.90;;;;;;5050630;28;20048;-59
2021/04/19 00:12:52;;;;;;;17.73;6.30;;;4.00;99.90;;;;;;5049538;28;20391;-60
2021/04/19 00:15:20;;;;;;;15.23;6.32;;;4.00;99.90;;;;;;5049944;28;20024;-59
2021/04/19 00:17:46;;;;;;;11.70;5.15;;;4.00;99.90;;;;;;5050177;28;20043;-56
2021/04/19 00:20:13;;;;;;;19.33;6.03;;;4.00;99.90;;;;;;5050567;28;20114;-57
2021/04/19 00:22:39;;;;;;;16.67;5.65;;;3.90;99.90;;;;;;5050252;28;20029;-58
2021/04/19 00:25:06;;;;;;;11.75;5.35;;;3.80;99.90;;;;;;5050016;28;20063;-55
2021/04/19 00:27:33;;;;;;;16.73;5.75;;;3.80;99.90;;;;;;5050674;28;20037;-54
2021/04/19 00:29:58;;;;;;;12.52;6.00;;;3.80;99.90;;;;;;5050347;28;20033;-56
2021/04/19 00:32:24;;;;;;;15.25;5.80;;;3.70;99.90;;;;;;5049655;28;20027;-59
2021/04/19 00:34:50;;;;;;;14.13;5.95;;;3.70;99.90;;;;;;5050652;28;20099;-56
2021/04/19 00:37:16;;;;;;;17.65;5.88;;;3.60;99.90;;;;;;5050749;28;20040;-59
2021/04/19 00:39:42;;;;;;;12.63;5.93;;;3.60;99.90;;;;;;5050332;28;20056;-58
2021/04/19 00:42:08;;;;;;;16.25;5.95;;;3.50;99.90;;;;;;5049545;28;20113;-58
2021/04/19 00:44:34;;;;;;;16.50;5.57;;;3.50;99.90;;;;;;5046801;28;20025;-58
2021/04/19 00:47:00;;;;;;;17.85;5.57;;;3.50;99.90;;;;;;5049182;28;20441;-58
2021/04/19 00:49:26;;;;;;;11.60;5.50;;;3.40;99.90;;;;;;5048342;28;20033;-56
2021/04/19 00:51:54;;;;;;;15.40;5.55;;;3.30;99.90;;;;;;5048092;28;20088;-59
2021/04/19 00:54:21;;;;;;;16.25;5.70;;;3.20;99.90;;;;;;5047144;28;20040;-54
2021/04/19 00:56:49;;;;;;;14.88;5.72;;;3.10;99.90;;;;;;5048154;28;20036;-58
2021/04/19 00:59:15;;;;;;;17.95;4.82;;;3.10;99.90;;;;;;5049256;28;20052;-58
2021/04/19 01:01:41;;;;;;;14.95;5.20;;;3.00;99.90;;;;;;5048381;28;20033;-52
2021/04/19 01:04:07;;;;;;;20.60;5.25;;;3.10;99.90;;;;;;5050089;28;20397;-59
2021/04/19 01:06:33;;;;;;;11.52;4.65;;;3.10;99.90;;;;;;5049485;28;20543;-58
2021/04/19 01:08:58;;;;;;;13.68;5.10;;;3.10;99.90;;;;;;5050758;28;20422;-58
2021/04/19 01:11:24;;;;;;;15.90;5.25;;;3.20;99.90;;;;;;5052759;28;20021;-60
2021/04/19 01:13:50;;;;;;;14.00;5.25;;;3.20;99.90;;;;;;5053770;28;20036;-60
2021/04/19 01:16:16;;;;;;;14.30;5.25;;;3.20;99.90;;;;;;5052160;28;20533;-59
2021/04/19 01:18:42;;;;;;;15.10;5.25;;;3.20;99.90;;;;;;5053800;28;20032;-58
2021/04/19 01:21:07;;;;;;;12.93;4.88;;;3.10;99.90;;;;;;5053085;28;20139;-59
2021/04/19 01:23:36;;;;;;;14.43;5.22;;;3.20;99.90;;;;;;5053332;28;20383;-55
2021/04/19 01:26:03;;;;;;;13.60;5.03;;;3.10;99.90;;;;;;5053754;28;20119;-57
2021/04/19 01:28:28;;;;;;;15.00;4.35;;;3.10;99.90;;;;;;5041607;28;20037;-57
2021/04/19 01:30:54;;;;;;;11.27;4.53;;;3.10;99.90;;;;;;5052464;28;20036;-59
2021/04/19 01:33:20;;;;;;;8.93;4.63;;;3.00;99.90;;;;;;5052819;28;20037;-59
2021/04/19 01:35:47;;;;;;;13.95;5.22;;;3.00;99.90;;;;;;5053322;28;20087;-57
2021/04/19 01:38:15;;;;;;;10.93;4.70;;;2.90;99.90;;;;;;5053043;28;20040;-56
2021/04/19 01:40:41;;;;;;;11.18;4.90;;;2.90;99.90;;;;;;5053037;28;20025;-58
2021/04/19 01:43:07;;;;;;;10.25;4.53;;;2.80;99.90;;;;;;5053097;28;20144;-58
2021/04/19 01:45:33;;;;;;;12.60;4.60;;;2.80;99.90;;;;;;5052741;28;20143;-59
2021/04/19 01:47:59;;;;;;;13.77;5.00;;;2.70;99.90;;;;;;5053143;28;20029;-58
2021/04/19 01:50:27;;;;;;;10.77;4.53;;;2.70;99.90;;;;;;5052842;28;20025;-60
2021/04/19 01:52:54;;;;;;;11.20;5.07;;;2.70;99.90;;;;;;5053017;28;20032;-59
2021/04/19 01:55:24;;;;;;;14.02;4.90;;;2.70;99.90;;;;;;5052717;28;20128;-58
2021/04/19 01:57:54;;;;;;;16.63;5.15;;;2.60;99.90;;;;;;5052690;28;20033;-56
2021/04/19 02:00:22;;;;;;;12.88;5.05;;;2.70;99.90;;;;;;5052144;28;20029;-56
2021/04/19 02:03:14;;;;;;;14.77;5.15;;;2.70;99.90;;;;;;5052131;28;20033;-57
2021/04/19 02:05:39;;;;;;;15.15;5.07;;;2.70;99.90;;;;;;5051360;28;20036;-59
2021/04/19 02:08:29;;;;;;;14.57;4.72;;;2.70;99.90;;;;;;5052700;28;20445;-60
2021/04/19 02:11:13;;;;;;;12.98;5.22;;;2.70;99.90;;;;;;5043981;28;20233;-57
2021/04/19 02:13:59;;;;;;;15.35;5.38;;;2.70;99.90;;;;;;5052167;28;20387;-58
2021/04/19 02:16:44;;;;;;;17.55;5.30;;;2.60;99.90;;;;;;5052226;28;20036;-56
2021/04/19 02:19:29;;;;;;;15.52;5.05;;;2.60;99.90;;;;;;5052155;28;20028;-60
2021/04/19 02:22:01;;;;;;;13.15;5.65;;;2.50;99.90;;;;;;5049243;28;20479;-56
2021/04/19 02:24:31;;;;;;;15.35;5.82;;;2.50;99.90;;;;;;5051956;28;20049;-60
2021/04/19 02:27:00;;;;;;;21.88;6.80;;;2.40;99.90;;;;;;5052140;28;20136;-58
2021/04/19 02:29:39;;;;;;;18.98;6.50;;;2.40;99.90;;;;;;5051588;28;20166;-58
2021/04/19 02:32:10;;;;;;;16.95;6.00;;;2.40;99.90;;;;;;5051201;28;20399;-57
2021/04/19 02:34:37;;;;;;;14.93;6.03;;;2.40;99.90;;;;;;5052427;28;20044;-59
2021/04/19 02:37:03;;;;;;;22.80;5.85;;;2.30;99.90;;;;;;5051814;28;20036;-56
2021/04/19 02:39:37;;;;;;;16.90;5.90;;;2.40;99.90;;;;;;5052202;28;20025;-58
2021/04/19 02:42:04;;;;;;;15.40;5.68;;;2.40;99.90;;;;;;5051706;28;20424;-58
2021/04/19 02:44:30;;;;;;;14.23;5.80;;;2.30;99.90;;;;;;5051795;28;20025;-58
2021/04/19 02:46:56;;;;;;;21.27;6.53;;;2.30;99.90;;;;;;5050867;28;20094;-58
2021/04/19 02:49:23;;;;;;;16.73;5.90;;;2.30;99.90;;;;;;5049055;28;20040;-60
2021/04/19 02:51:52;;;;;;;14.20;5.68;;;2.30;99.90;;;;;;5051676;28;20083;-56
2021/04/19 02:54:21;;;;;;;20.17;5.47;;;2.30;99.90;;;;;;5052403;28;20039;-55
2021/04/19 02:56:49;;;;;;;15.23;5.65;;;2.30;99.90;;;;;;5051180;28;20041;-57
2021/04/19 02:59:17;;;;;;;15.32;5.82;;;2.30;99.90;;;;;;5051023;28;20096;-58
2021/04/19 03:01:48;;;;;;;12.32;5.68;;;2.30;99.90;;;;;;5051709;28;20425;-57
2021/04/19 03:04:16;;;;;;;14.75;5.63;;;2.20;99.90;;;;;;5050937;28;20029;-58
2021/04/19 03:06:47;;;;;;;17.88;6.60;;;2.10;99.90;;;;;;5051250;28;20024;-56
2021/04/19 03:09:16;;;;;;;17.30;6.05;;;2.10;99.90;;;;;;5051306;28;20048;-55
2021/04/19 03:11:48;;;;;;;18.15;6.20;;;2.00;99.90;;;;;;5051664;28;20025;-60
2021/04/19 03:14:15;;;;;;;16.92;6.55;;;2.00;99.90;;;;;;5050799;28;20481;-60
2021/04/19 03:16:49;;;;;;;19.17;6.50;;;2.00;99.90;;;;;;5051012;28;20433;-58
2021/04/19 03:19:21;;;;;;;19.45;6.90;;;2.10;99.90;;;;;;5042554;28;20040;-56
2021/04/19 03:21:48;;;;;;;28.48;8.85;;;2.10;99.90;;;;;;5047822;28;20029;-59
2021/04/19 03:24:15;;;;;;;33.35;9.73;;;2.10;99.90;;;;;;5049926;28;20084;-59
2021/04/19 03:26:42;;;;;;;25.58;8.55;;;2.10;99.90;;;;;;5050547;28;20051;-58
2021/04/19 03:29:09;;;;;;;28.10;8.00;;;2.10;99.90;;;;;;5051453;28;20060;-59
2021/04/19 03:31:46;;;;;;;26.88;8.77;;;2.00;99.90;;;;;;5050552;28;20402;-56
2021/04/19 03:34:16;;;;;;;24.83;9.00;;;2.10;99.90;;;;;;5050763;28;20033;-56
2021/04/19 03:36:43;;;;;;;165.52;19.55;;;2.10;99.90;;;;;;5051019;28;20041;-57
2021/04/19 03:39:10;;;;;;;30.40;8.98;;;2.10;99.90;;;;;;5050787;28;20528;-58
2021/04/19 03:41:41;;;;;;;23.48;8.88;;;2.20;99.90;;;;;;5050680;28;20104;-58
2021/04/19 03:44:11;;;;;;;25.58;8.40;;;2.00;99.90;;;;;;5050796;28;20033;-57
2021/04/19 03:46:42;;;;;;;28.45;8.73;;;2.00;99.90;;;;;;5050756;28;20056;-57
2021/04/19 03:49:14;;;;;;;24.80;8.68;;;1.90;99.90;;;;;;5050402;28;20509;-58
2021/04/19 03:51:44;;;;;;;41.72;9.52;;;1.90;99.90;;;;;;5051050;28;20090;-58
2021/04/19 03:54:12;;;;;;;36.88;9.38;;;1.90;99.90;;;;;;5048273;28;20083;-59
2021/04/19 03:56:40;;;;;;;36.28;9.25;;;1.90;99.90;;;;;;5050415;28;20044;-59
2021/04/19 03:59:10;;;;;;;28.95;8.93;;;1.80;99.90;;;;;;5050636;28;20112;-58
2021/04/19 04:01:39;;;;;;;24.95;8.23;;;1.70;99.90;;;;;;5050065;28;20060;-57
2021/04/19 04:04:06;;;;;;;30.38;9.90;;;1.70;99.90;;;;;;5045983;28;20120;-56
2021/04/19 04:06:32;;;;;;;39.25;10.93;;;1.70;99.90;;;;;;5050303;28;20055;-58
2021/04/19 04:08:58;;;;;;;35.97;11.60;;;1.60;99.90;;;;;;5050295;28;20475;-55
2021/04/19 04:11:26;;;;;;;38.17;13.80;;;1.70;99.90;;;;;;5050817;28;20021;-60
2021/04/19 04:13:51;;;;;;;39.70;14.75;;;1.70;99.90;;;;;;5050736;28;20053;-57
2021/04/19 04:16:17;;;;;;;71.20;16.75;;;1.70;99.90;;;;;;5050212;28;20069;-59
2021/04/19 04:18:43;;;;;;;70.22;16.38;;;1.80;99.90;;;;;;5049665;28;20032;-57
2021/04/19 04:21:09;;;;;;;84.55;16.58;;;1.80;99.90;;;;;;5050369;28;20037;-57
2021/04/19 04:23:35;;;;;;;54.42;15.65;;;1.80;99.90;;;;;;5050350;28;20092;-58
2021/04/19 04:26:03;;;;;;;82.38;16.67;;;1.80;99.90;;;;;;5050185;28;20720;-59
2021/04/19 04:28:29;;;;;;;56.97;14.50;;;1.70;99.90;;;;;;5047043;28;20033;-60
2021/04/19 04:30:55;;;;;;;60.88;15.98;;;1.70;99.90;;;;;;5049916;28;20475;-58
2021/04/19 04:33:20;;;;;;;42.17;14.27;;;1.70;99.90;;;;;;5050518;28;20025;-59
2021/04/19 04:35:46;;;;;;;43.75;13.55;;;1.70;99.90;;;;;;5050255;28;20033;-56
2021/04/19 04:38:12;;;;;;;42.17;14.43;;;1.70;99.90;;;;;;5050280;28;20427;-59
2021/04/19 04:40:38;;;;;;;37.75;13.15;;;1.70;99.90;;;;;;5050445;28;20391;-58
2021/04/19 04:43:11;;;;;;;49.13;14.48;;;1.60;99.90;;;;;;5049845;28;20059;-59
2021/04/19 04:45:38;;;;;;;118.70;19.60;;;1.70;99.90;;;;;;5053719;28;20167;-59
2021/04/19 04:48:32;;;;;;;40.35;13.07;;;1.60;99.90;;;;;;5053674;28;20112;-55
2021/04/19 04:51:11;;;;;;;49.53;13.80;;;1.50;99.90;;;;;;5053499;28;20108;-56
2021/04/19 04:53:49;;;;;;;34.97;11.68;;;1.50;99.90;;;;;;5053878;28;20025;-55
2021/04/19 04:56:17;;;;;;;29.52;11.63;;;1.40;99.90;;;;;;5053949;28;20047;-54
2021/04/19 04:58:43;;;;;;;25.55;10.68;;;1.40;99.90;;;;;;5053680;28;20025;-53
2021/04/19 05:01:10;;;;;;;24.33;11.07;;;1.40;99.90;;;;;;5051915;28;20471;-58
2021/04/19 05:03:37;;;;;;;40.20;12.88;;;1.50;99.90;;;;;;5053796;28;20029;-55
2021/04/19 05:06:06;;;;;;;26.08;11.48;;;1.60;99.90;;;;;;5053781;28;20045;-58
2021/04/19 05:08:32;;;;;;;26.98;11.07;;;1.60;99.90;;;;;;5053514;28;20037;-59
2021/04/19 05:10:58;;;;;;;24.63;11.18;;;1.60;99.90;;;;;;5052325;28;20356;-58
2021/04/19 05:13:24;;;;;;;25.17;11.75;;;1.60;99.90;;;;;;5053897;28;20028;-58
2021/04/19 05:15:50;;;;;;;19.48;9.82;;;1.60;99.90;;;;;;5053052;28;20040;-59
2021/04/19 05:18:18;;;;;;;26.98;11.48;;;1.60;99.90;;;;;;5053611;28;20033;-58
2021/04/19 05:20:44;;;;;;;29.88;11.27;;;1.70;99.90;;;;;;5053160;28;20052;-56
2021/04/19 05:23:12;;;;;;;28.85;11.23;;;1.80;99.90;;;;;;5053877;28;20437;-55
2021/04/19 05:25:38;;;;;;;34.40;11.40;;;1.80;99.90;;;;;;5053192;28;20053;-57
2021/04/19 05:28:04;;;;;;;32.40;11.77;;;1.70;99.90;;;;;;5053248;28;20114;-58
2021/04/19 05:30:31;;;;;;;38.55;12.57;;;1.70;99.90;;;;;;5053572;28;20036;-58
2021/04/19 05:33:00;;;;;;;29.98;12.35;;;1.70;99.90;;;;;;5053092;28;20035;-52
2021/04/19 05:35:27;;;;;;;28.08;11.13;;;1.70;99.90;;;;;;5052873;28;20036;-58
2021/04/19 05:37:54;;;;;;;34.65;11.60;;;1.70;99.90;;;;;;5053189;28;20037;-59
2021/04/19 05:40:20;;;;;;;24.67;11.77;;;1.70;99.90;;;;;;5051668;28;20368;-57
2021/04/19 05:42:47;;;;;;;41.10;12.82;;;1.70;99.90;;;;;;5052972;28;20036;-57
2021/04/19 05:45:17;;;;;;;31.27;12.30;;;1.80;99.90;;;;;;5048924;28;20036;-57
2021/04/19 05:47:44;;;;;;;38.75;13.15;;;1.80;99.90;;;;;;5052013;28;20029;-58
2021/04/19 05:50:11;;;;;;;37.45;13.07;;;1.90;99.90;;;;;;5051246;28;20395;-62
2021/04/19 05:52:37;;;;;;;43.05;12.98;;;2.00;99.90;;;;;;5053022;28;20457;-59
2021/04/19 05:55:04;;;;;;;42.42;12.82;;;1.90;99.90;;;;;;5049800;28;20060;-56
2021/04/19 05:58:02;;;;;;;34.85;11.40;;;2.00;99.90;;;;;;5052197;28;20029;-58
2021/04/19 06:00:35;;;;;;;29.42;10.73;;;2.10;99.90;;;;;;5048144;28;20067;-61
2021/04/19 06:03:20;;;;;;;36.60;10.88;;;2.20;99.90;;;;;;5052096;28;20064;-59
2021/04/19 06:05:58;;;;;;;;;;;2.30;99.90;;;;;;5051249;28;20844;-56
2021/04/19 06:08:30;;;;;;;30.00;9.18;;;2.40;99.90;;;;;;5052703;28;20002;-57
2021/04/19 06:11:28;;;;;;;46.30;10.88;;;2.50;99.90;;;;;;5052162;28;20382;-55
2021/04/19 06:13:55;;;;;;;27.65;9.98;;;2.50;99.90;;;;;;5052345;28;20036;-60
2021/04/19 06:16:21;;;;;;;33.25;9.13;;;2.70;99.90;;;;;;5051097;28;20063;-58
2021/04/19 06:18:49;;;;;;;19.20;7.07;;;2.80;99.90;;;;;;5052364;28;20033;-56
2021/04/19 06:21:15;;;;;;;33.17;7.55;;;2.90;99.90;;;;;;5052722;28;20028;-56
2021/04/19 06:23:41;;;;;;;23.70;9.05;;;2.90;99.90;;;;;;5051736;28;20033;-56
2021/04/19 06:26:08;;;;;;;20.42;5.72;;;3.00;99.90;;;;;;5051345;28;20056;-56
2021/04/19 06:28:34;;;;;;;25.15;7.60;;;3.20;99.90;;;;;;5051593;28;20035;-57
2021/04/19 06:31:02;;;;;;;22.60;6.55;;;3.30;99.90;;;;;;5051454;28;20471;-57
2021/04/19 06:33:30;;;;;;;11.45;5.40;;;3.30;99.90;;;;;;5051936;28;20028;-60
2021/04/19 06:35:55;;;;;;;15.25;6.28;;;3.30;99.90;;;;;;5051716;28;20048;-60
2021/04/19 06:38:22;;;;;;;20.98;6.00;;;3.40;99.90;;;;;;5051360;28;20029;-57
2021/04/19 06:40:48;;;;;;;21.23;6.93;;;3.50;99.90;;;;;;5051157;28;20063;-58
2021/04/19 06:43:14;;;;;;;19.90;8.02;;;3.60;99.90;;;;;;5051586;28;20102;-58
2021/04/19 06:45:40;;;;;;;21.88;7.40;;;3.60;99.90;;;;;;5051188;28;20471;-55
2021/04/19 06:48:08;;;;;;;14.02;5.95;;;3.60;99.90;;;;;;5052260;28;20083;-55
2021/04/19 06:50:35;;;;;;;28.67;7.93;;;3.70;99.90;;;;;;5051182;28;20424;-57
2021/04/19 06:53:01;;;;;;;15.82;6.43;;;3.60;99.90;;;;;;5048254;28;20041;-58
2021/04/19 06:55:27;;;;;;;35.35;9.05;;;3.80;99.90;;;;;;5050747;28;20110;-59
2021/04/19 06:57:58;;;;;;;36.47;7.85;;;3.80;99.90;;;;;;5051983;28;20052;-52
2021/04/19 07:00:30;;;;;;;18.38;7.50;;;3.90;99.90;;;;;;5049704;28;20131;-57
2021/04/19 07:03:03;;;;;;;18.13;7.05;;;4.00;99.90;;;;;;5049642;28;20120;-56
2021/04/19 07:05:37;;;;;;;32.75;8.13;;;4.10;99.90;;;;;;5044811;28;20025;-58
2021/04/19 07:08:24;;;;;;;19.45;6.47;;;4.20;99.90;;;;;;5050384;28;20037;-55
2021/04/19 07:10:55;;;;;;;51.53;8.68;;;4.30;99.90;;;;;;5047424;28;20514;-58
2021/04/19 07:13:22;;;;;;;15.98;6.80;;;4.40;99.90;;;;;;5049566;28;20036;-58
2021/04/19 07:15:48;;;;;;;30.63;7.53;;;4.50;99.90;;;;;;5050760;28;20433;-57
2021/04/19 07:18:16;;;;;;;22.95;6.15;;;4.50;99.90;;;;;;5050581;28;20025;-55
2021/04/19 07:20:44;;;;;;;31.85;9.32;;;4.70;99.90;;;;;;5050373;28;20063;-55
2021/04/19 07:23:11;;;;;;;17.88;7.95;;;4.90;99.90;;;;;;5049681;28;20091;-58
2021/04/19 07:25:37;;;;;;;27.85;7.97;;;5.10;99.90;;;;;;5050551;28;20067;-59
2021/04/19 07:28:05;;;;;;;18.40;6.72;;;5.30;99.90;;;;;;5050360;28;20491;-58
2021/04/19 07:30:32;;;;;;;31.25;6.57;;;5.60;99.90;;;;;;5050646;28;20463;-59
2021/04/19 07:33:00;;;;;;;20.48;6.78;;;6.10;99.90;;;;;;5051351;28;20025;-58
2021/04/19 07:35:32;;;;;;;26.75;7.00;;;6.40;99.90;;;;;;5050444;28;20119;-60
2021/04/19 07:38:00;;;;;;;16.10;6.82;;;6.80;99.90;;;;;;5051380;28;20033;-56
2021/04/19 07:40:34;;;;;;;13.93;5.68;;;7.10;99.90;;;;;;5047615;28;20776;-56
2021/04/19 07:43:11;;;;;;;37.22;10.38;;;7.40;99.90;;;;;;5050498;28;20040;-59
2021/04/19 07:45:39;;;;;;;23.90;6.45;;;7.60;99.90;;;;;;5050010;28;20099;-57
2021/04/19 07:48:05;;;;;;;23.48;6.78;;;7.80;99.90;;;;;;5050231;28;20081;-58
2021/04/19 07:50:30;;;;;;;30.58;7.85;;;8.20;99.90;;;;;;5050236;28;20107;-57
2021/04/19 07:53:00;;;;;;;18.77;6.80;;;8.50;99.90;;;;;;5050231;28;20029;-58
2021/04/19 07:55:37;;;;;;;25.67;6.53;;;8.80;99.90;;;;;;5049831;28;20040;-59
2021/04/19 07:58:22;;;;;;;27.63;7.70;;;9.20;99.90;;;;;;5050121;28;20032;-56
2021/04/19 08:00:48;;;;;;;;;;;9.40;99.90;;;;;;5049725;28;20033;-56
2021/04/19 08:03:17;;;;;;;21.45;7.80;;;9.60;99.90;;;;;;5049600;28;19912;-58
2021/04/19 08:05:51;;;;;;;30.42;8.55;;;9.70;99.90;;;;;;5038645;28;20531;-56
2021/04/19 08:08:34;;;;;;;19.77;7.03;;;10.00;99.90;;;;;;5048938;28;20479;-59
2021/04/19 08:11:07;;;;;;;18.35;7.90;;;10.30;99.90;;;;;;5045909;28;20025;-55
2021/04/19 08:13:33;;;;;;;23.95;8.57;;;10.30;99.90;;;;;;5049668;28;20078;-58
2021/04/19 08:16:16;;;;;;;32.03;9.77;;;10.50;99.90;;;;;;5048882;28;20036;-58
2021/04/19 08:18:43;;;;;;;31.65;8.93;;;10.70;99.90;;;;;;5049534;28;20041;-59
2021/04/19 08:21:09;;;;;;;25.40;8.70;;;11.10;99.90;;;;;;5054518;28;20025;-57
2021/04/19 08:23:44;;;;;;;24.83;7.50;;;11.40;99.90;;;;;;5054440;28;20021;-57
2021/04/19 08:26:11;;;;;;;19.58;6.93;;;11.40;99.90;;;;;;5050477;28;20065;-59
2021/04/19 08:28:48;;;;;;;22.23;7.65;;;11.50;99.90;;;;;;5054259;28;20020;-59
2021/04/19 08:31:15;;;;;;;19.13;6.93;;;11.90;99.90;;;;;;5053508;28;20025;-57
2021/04/19 08:33:45;;;;;;;11.75;6.70;;;12.10;99.90;;;;;;5052463;28;20037;-57
2021/04/19 08:36:14;;;;;;;27.38;6.47;;;12.10;99.90;;;;;;5053625;28;20032;-57
2021/04/19 08:38:41;;;;;;;36.65;9.07;;;12.10;99.90;;;;;;5053737;28;20025;-57
2021/04/19 08:41:09;;;;;;;19.52;6.43;;;12.40;99.90;;;;;;5053828;28;20029;-57
2021/04/19 08:43:35;;;;;;;29.48;7.07;;;12.80;99.90;;;;;;5053833;28;20108;-59
2021/04/19 08:46:03;;;;;;;27.50;7.28;;;12.90;99.90;;;;;;5054013;28;20108;-58
2021/04/19 08:48:30;;;;;;;31.60;7.70;;;12.90;99.90;;;;;;5053515;28;20025;-60
2021/04/19 08:51:00;;;;;;;18.02;6.65;;;13.00;99.90;;;;;;5053675;28;20036;-58
2021/04/19 08:53:28;;;;;;;15.38;6.55;;;13.00;99.90;;;;;;5054089;28;20040;-60
2021/04/19 08:55:54;;;;;;;18.55;6.60;;;13.00;99.90;;;;;;5054079;28;20029;-54
2021/04/19 08:58:20;;;;;;;33.05;8.15;;;13.00;99.90;;;;;;5054264;28;20048;-59
2021/04/19 09:00:52;;;;;;;24.48;7.88;;;12.90;99.90;;;;;;5054160;28;20033;-57
2021/04/19 09:03:20;;;;;;;18.92;6.97;;;13.10;99.90;;;;;;5053821;28;20037;-59
2021/04/19 09:05:47;;;;;;;25.55;8.98;;;13.20;99.90;;;;;;5053980;28;20035;-59
2021/04/19 09:08:19;;;;;;;18.85;8.05;;;13.10;99.90;;;;;;5054088;28;20028;-59
2021/04/19 09:11:06;;;;;;;18.83;8.25;;;13.20;99.90;;;;;;5054025;28;20025;-58
2021/04/19 09:13:36;;;;;;;32.38;9.30;;;13.20;99.90;;;;;;5044976;28;20067;-60
2021/04/19 09:16:19;;;;;;;22.33;8.35;;;13.20;99.90;;;;;;5053639;28;20071;-54
2021/04/19 09:18:53;;;;;;;27.25;8.88;;;13.20;99.90;;;;;;5053737;28;20040;-57
2021/04/19 09:21:40;;;;;;;36.72;10.20;;;13.10;99.90;;;;;;5053857;28;20067;-60
2021/04/19 09:24:08;;;;;;;26.88;7.88;;;13.30;99.90;;;;;;5053447;28;20060;-59
2021/04/19 09:26:51;;;;;;;15.15;5.82;;;13.40;99.90;;;;;;5054111;28;20067;-57
2021/04/19 09:29:25;;;;;;;20.15;5.97;;;13.50;99.90;;;;;;5052925;28;20033;-60
2021/04/19 09:32:06;;;;;;;11.40;5.03;;;13.40;99.90;;;;;;5053345;28;20437;-60
2021/04/19 09:34:45;;;;;;;12.57;5.75;;;13.60;99.90;;;;;;5053695;28;20158;-59
2021/04/19 09:37:14;;;;;;;18.60;6.65;;;13.60;99.90;;;;;;5053051;28;20025;-60
2021/04/19 09:40:14;;;;;;;12.88;5.38;;;13.70;99.90;;;;;;5053286;28;20041;-58
2021/04/19 09:42:55;;;;;;;15.85;5.05;;;13.60;99.90;;;;;;5053498;28;20025;-59
2021/04/19 09:45:46;;;;;;;19.02;6.20;;;13.70;99.90;;;;;;5053431;28;20478;-57
2021/04/19 09:48:28;;;;;;;18.15;5.28;;;13.90;99.90;;;;;;5053104;28;20086;-58
2021/04/19 09:50:58;;;;;;;16.10;6.03;;;13.80;99.90;;;;;;5053485;28;20032;-59
2021/04/19 09:53:25;;;;;;;10.10;5.32;;;13.60;99.90;;;;;;5051785;28;20372;-58
2021/04/19 09:55:51;;;;;;;20.52;5.97;;;13.70;99.90;;;;;;5052953;28;20041;-56
2021/04/19 09:58:18;;;;;;;20.25;4.90;;;13.70;99.90;;;;;;5053270;28;20032;-56
2021/04/19 10:00:46;;;;;;;7.82;3.95;;;13.90;99.90;;;;;;5053277;28;20116;-57
2021/04/19 10:03:11;;;;;;;16.63;4.53;;;13.60;99.90;;;;;;5052840;28;20082;-59
2021/04/19 10:05:40;;;;;;;30.63;6.95;;;13.60;99.90;;;;;;5052875;28;20438;-59
2021/04/19 10:08:07;;;;;;;14.52;5.47;;;13.80;99.90;;;;;;5052670;28;20064;-57
2021/04/19 10:10:33;;;;;;;29.02;6.43;;;13.80;99.90;;;;;;5051875;28;20037;-58
2021/04/19 10:12:59;;;;;;;13.70;5.60;;;13.90;99.90;;;;;;5052343;28;20032;-57
2021/04/19 10:15:27;;;;;;;12.77;6.47;;;13.80;99.90;;;;;;5052090;28;20865;-59
2021/04/19 10:17:53;;;;;;;17.23;5.63;;;13.80;99.90;;;;;;5051924;28;20087;-57
2021/04/19 10:20:21;;;;;;;14.05;5.68;;;13.90;99.90;;;;;;5052959;28;20025;-59
2021/04/19 10:23:05;;;;;;;14.23;5.45;;;13.90;99.90;;;;;;5051819;28;20032;-61
2021/04/19 10:25:32;;;;;;;19.38;5.57;;;14.10;99.90;;;;;;5050222;28;20056;-57
2021/04/19 10:27:58;;;;;;;22.80;6.47;;;14.10;99.90;;;;;;5052122;28;20029;-58
2021/04/19 10:30:24;;;;;;;20.20;5.80;;;14.10;99.90;;;;;;5052107;28;20037;-58
2021/04/19 10:32:50;;;;;;;21.45;6.65;;;14.30;99.90;;;;;;5051866;28;20033;-57
2021/04/19 10:35:35;;;;;;;19.67;6.65;;;14.30;99.90;;;;;;5052138;28;20160;-59
2021/04/19 10:38:01;;;;;;;14.73;5.75;;;14.20;99.90;;;;;;5046833;28;20479;-56
2021/04/19 10:40:27;;;;;;;15.05;6.07;;;14.30;99.90;;;;;;5051604;28;20110;-56
2021/04/19 10:43:03;;;;;;;13.73;6.05;;;14.40;99.90;;;;;;5050729;28;20466;-57
2021/04/19 10:45:28;;;;;;;17.27;6.10;;;14.20;99.90;;;;;;5051341;28;20039;-57
2021/04/19 10:48:15;;;;;;;11.50;6.30;;;14.50;99.90;;;;;;5051685;28;20036;-58
2021/04/19 10:50:41;;;;;;;12.18;5.70;;;14.30;99.90;;;;;;5051930;28;20040;-57
2021/04/19 10:53:07;;;;;;;17.50;5.78;;;14.40;99.90;;;;;;5052141;28;20037;-59
2021/04/19 10:55:32;;;;;;;17.73;6.28;;;14.40;99.90;;;;;;5051905;28;20033;-54
2021/04/19 10:57:58;;;;;;;15.45;6.60;;;14.50;99.90;;;;;;5051935;28;20029;-58
2021/04/19 11:00:24;;;;;;;17.15;7.07;;;14.40;99.90;;;;;;5051730;28;20058;-57
2021/04/19 11:02:53;;;;;;;14.50;6.47;;;14.30;99.90;;;;;;5051515;28;20132;-57
2021/04/19 11:05:19;;;;;;;11.40;6.22;;;14.50;99.90;;;;;;5050642;28;20148;-58
2021/04/19 11:07:45;;;;;;;15.43;7.07;;;14.50;99.90;;;;;;5051651;28;20468;-59
2021/04/19 11:10:16;;;;;;;12.55;6.35;;;14.70;99.90;;;;;;5051703;28;20025;-58
2021/04/19 11:13:02;;;;;;;11.70;6.95;;;14.80;99.90;;;;;;5051187;28;20059;-58
2021/04/19 11:15:34;;;;;;;14.90;7.03;;;14.80;99.90;;;;;;5051450;28;20041;-56
2021/04/19 11:18:14;;;;;;;12.38;7.07;;;14.80;99.90;;;;;;5051188;28;20025;-55
2021/04/19 11:20:41;;;;;;;20.13;7.55;;;14.70;99.90;;;;;;5051713;28;20045;-59
2021/04/19 11:23:25;;;;;;;11.65;7.20;;;14.80;99.90;;;;;;5040846;28;20522;-59
2021/04/19 11:25:52;;;;;;;14.98;7.18;;;14.70;99.90;;;;;;5050631;28;20049;-57
2021/04/19 11:28:29;;;;;;;16.38;8.02;;;14.60;99.90;;;;;;5047159;28;20100;-58
2021/04/19 11:30:55;;;;;;;15.90;8.20;;;14.60;99.90;;;;;;5050928;28;20029;-56
2021/04/19 11:33:22;;;;;;;16.92;8.13;;;14.70;99.90;;;;;;5049259;28;20060;-58
2021/04/19 11:35:51;;;;;;;20.63;8.45;;;14.90;99.90;;;;;;5056606;28;20052;-57
2021/04/19 11:38:22;;;;;;;16.88;7.40;;;15.10;99.90;;;;;;5051544;28;20029;-57
2021/04/19 11:40:50;;;;;;;15.57;7.50;;;15.10;99.90;;;;;;5050416;28;20036;-58
2021/04/19 11:43:30;;;;;;;19.67;8.18;;;15.30;99.90;;;;;;5049518;28;20040;-56
2021/04/19 11:46:10;;;;;;;21.60;8.80;;;15.30;99.90;;;;;;5049331;28;20063;-57
2021/04/19 11:48:39;;;;;;;23.98;8.55;;;15.50;99.90;;;;;;5050688;28;20089;-59
2021/04/19 11:51:06;;;;;;;23.20;7.90;;;15.40;99.90;;;;;;5050373;28;20032;-58
2021/04/19 11:53:34;;;;;;;23.38;9.13;;;15.30;99.90;;;;;;5050237;28;20029;-58
2021/04/19 11:56:02;;;;;;;18.65;8.38;;;15.40;99.90;;;;;;5049798;28;20043;-56
2021/04/19 11:58:28;;;;;;;16.23;7.85;;;15.40;99.90;;;;;;5049931;28;20025;-58
2021/04/19 12:00:55;;;;;;;15.90;8.43;;;15.60;99.90;;;;;;5049355;28;20494;-60
2021/04/19 12:03:22;;;;;;;13.50;8.48;;;15.70;99.90;;;;;;5050068;28;20032;-58
2021/04/19 12:05:48;;;;;;;23.05;9.40;;;15.70;99.90;;;;;;5050761;28;20033;-57
2021/04/19 12:08:14;;;;;;;19.52;8.70;;;15.60;99.90;;;;;;5050145;28;20179;-58
2021/04/19 12:10:41;;;;;;;18.10;8.70;;;15.80;99.90;;;;;;5050016;28;20503;-57
2021/04/19 12:13:13;;;;;;;18.98;8.63;;;15.80;99.90;;;;;;5050041;28;20045;-58
2021/04/19 12:15:40;;;;;;;24.13;8.48;;;15.80;99.90;;;;;;5048321;28;20406;-59
2021/04/19 12:18:05;;;;;;;30.13;9.23;;;15.90;99.90;;;;;;5049503;28;20048;-57
2021/04/19 12:20:31;;;;;;;26.17;9.60;;;16.10;99.90;;;;;;5049729;28;20478;-60
2021/04/19 12:22:57;;;;;;;25.85;9.50;;;16.30;99.90;;;;;;5049608;28;20032;-57
2021/04/19 12:25:23;;;;;;;14.25;8.43;;;16.30;99.90;;;;;;5050274;28;20111;-58
2021/04/19 12:27:48;;;;;;;22.92;10.10;;;16.50;99.90;;;;;;5049041;28;20029;-56
2021/04/19 12:30:14;;;;;;;22.55;9.50;;;16.50;99.90;;;;;;5047235;28;20025;-55
2021/04/19 12:32:40;;;;;;;18.58;9.10;;;16.60;99.90;;;;;;5045666;28;20025;-59
2021/04/19 12:35:06;;;;;;;15.93;8.90;;;16.50;99.90;;;;;;5044653;28;20113;-58
2021/04/19 12:37:32;;;;;;;19.30;9.32;;;16.40;99.90;;;;;;5046242;28;20079;-59
2021/04/19 12:39:58;;;;;;;23.95;10.13;;;16.40;99.90;;;;;;5043809;28;20748;-57
2021/04/19 12:42:24;;;;;;;27.67;10.30;;;16.40;99.90;;;;;;5047344;28;20025;-58
2021/04/19 12:44:49;;;;;;;29.45;9.68;;;16.40;99.90;;;;;;5046327;28;20116;-58
2021/04/19 12:47:15;;;;;;;17.88;9.18;;;16.40;99.90;;;;;;5044173;28;20040;-60
2021/04/19 12:49:41;;;;;;;13.25;8.98;;;16.20;99.90;;;;;;5049638;28;20032;-60
2021/04/19 12:52:06;;;;;;;23.33;10.18;;;16.40;99.90;;;;;;5049700;28;20033;-58
2021/04/19 12:54:33;;;;;;;20.95;9.70;;;16.30;99.90;;;;;;5045885;28;20029;-58